»·PEaware :: N292AW KVNY-KBFL

N292AW :: KVNY-KBFL

FLIGHT INFORMATION

Flight Status: Arrived
Operator: Privately registered:
United States
More flights under this callsign
Pilot: Alex L. (10007)
Aircraft: CIRRUS VISIONJET
(SF50)
More flights by this aircraft type
Origin: KVNY Van Nuys
United States
Destination: KBFL Meadows
United States
More flights between these airports :: More routes between these airports
Route: +CANOG3 GMN FASTO2
File this flight plan on PilotEdge
Remarks:
Altitude:
(Current/Filed)
11,000ft
Speed:
(Current/Filed)
250kts
Departed: 15-May-20 12:59 PM
Arrived: 15-May-20 01:29 PM
Distance/Time
Traveled:
78nm/0:30
Distance/Time
To Go:
Arrived

Flight Plot

Page will automatically refresh every two minutes.


Map Options




Map Legend


Flown Route
Filed Route
Departure Airport
Arrival Airport
Navaid (VOR, NDB)
Fix

Horizontal Profiles

Position Reports

Time Latitude Longitude Heading Altitude Ground
Speed
15-May-20 12:41 34.217856 -118.495610 190 806ft 0kts
15-May-20 12:42 34.217856 -118.495610 190 806ft 0kts
15-May-20 12:43 34.217856 -118.495610 190 806ft 0kts
15-May-20 12:44 34.217856 -118.495610 190 806ft 0kts
15-May-20 12:45 34.217856 -118.495610 190 806ft 0kts
15-May-20 12:46 34.217856 -118.495610 190 806ft 0kts
15-May-20 12:48 34.217856 -118.495610 190 806ft 0kts
15-May-20 12:49 34.217856 -118.495610 190 806ft 0kts
15-May-20 12:50 34.217856 -118.495610 190 806ft 0kts
15-May-20 12:51 34.217856 -118.495610 190 806ft 0kts
15-May-20 12:52 34.217856 -118.495610 190 806ft 0kts
15-May-20 12:53 34.217856 -118.495610 190 806ft 0kts
15-May-20 12:54 34.217711 -118.495615 149 806ft 4kts
15-May-20 12:55 34.217169 -118.492753 99 806ft 3kts
15-May-20 12:56 34.218670 -118.492143 58 806ft 0kts
15-May-20 12:57 34.218670 -118.492143 58 806ft 0kts
15-May-20 12:58 34.218679 -118.491244 153 806ft 10kts
15-May-20 12:59 34.191564 -118.488910 192 1417ft 134kts
15-May-20 13:00 34.161771 -118.520609 225 2438ft 143kts
15-May-20 13:00 34.152929 -118.552858 318 3273ft 136kts
15-May-20 13:02 34.193722 -118.559894 341 4444ft 122kts
15-May-20 13:03 34.231148 -118.577872 338 6122ft 174kts
15-May-20 13:04 34.276905 -118.600354 338 8954ft 183kts
15-May-20 13:04 34.316736 -118.619954 338 10951ft 199kts
15-May-20 13:06 34.392797 -118.657464 337 10971ft 273kts
15-May-20 13:07 34.461647 -118.691436 337 11000ft 266kts
15-May-20 13:07 34.519301 -118.719962 337 11000ft 270kts
15-May-20 13:08 34.588941 -118.754446 337 11000ft 271kts
15-May-20 13:09 34.658850 -118.789163 337 11000ft 272kts
15-May-20 13:10 34.668947 -118.794185 337 10999ft 272kts
15-May-20 13:11 34.720495 -118.819824 337 10999ft 272kts
15-May-20 13:12 34.790512 -118.854707 337 10999ft 272kts
15-May-20 13:13 34.865538 -118.861347 359 10999ft 272kts
15-May-20 13:14 34.941354 -118.861442 359 10999ft 272kts
15-May-20 13:15 35.014760 -118.861406 359 10989ft 230kts
15-May-20 13:16 35.078433 -118.861421 359 10922ft 229kts
15-May-20 13:17 35.141883 -118.861438 359 8335ft 226kts
15-May-20 13:18 35.200570 -118.861455 359 5622ft 196kts
15-May-20 13:19 35.253195 -118.861467 359 4992ft 165kts
15-May-20 13:20 35.287224 -118.880407 317 5003ft 140kts
15-May-20 13:21 35.314902 -118.913189 315 5000ft 94kts
15-May-20 13:22 35.332159 -118.934094 315 5000ft 87kts
15-May-20 13:23 35.348461 -118.953875 315 3777ft 108kts
15-May-20 13:24 35.368879 -118.978672 315 1698ft 102kts
15-May-20 13:25 35.389617 -119.002667 314 1650ft 84kts
15-May-20 13:26 35.407485 -119.024340 315 1179ft 102kts
15-May-20 13:27 35.427585 -119.048696 315 620ft 89kts
15-May-20 13:28 35.436321 -119.057642 76 493ft 0kts
15-May-20 13:29 35.435191 -119.055579 135 493ft 25kts
15-May-20 13:30 35.431644 -119.049641 89 497ft 17kts
15-May-20 13:31 35.431115 -119.048976 217 496ft 0kts
15-May-20 13:32 35.431115 -119.048976 217 496ft 0kts
15-May-20 13:33 35.431115 -119.048976 217 496ft 0kts
15-May-20 13:34 35.431115 -119.048976 217 496ft 0kts
15-May-20 13:35 35.431115 -119.048976 217 496ft 0kts

Navigation Log

Ident Type
Flight plan parsing failed, navigation log unavailable